sensor_id;sensor_type;location;lat;lon;timestamp;pressure;altitude;pressure_sealevel;temperature;humidity
38466;BME280;24244;51.950;5.902;2024-03-08T00:00:05;101840.63;;;6.29;80.32
38466;BME280;24244;51.950;5.902;2024-03-08T00:02:36;101838.69;;;6.31;80.20
38466;BME280;24244;51.950;5.902;2024-03-08T00:05:04;101836.19;;;6.29;80.23
38466;BME280;24244;51.950;5.902;2024-03-08T00:07:33;101831.03;;;6.28;79.90
38466;BME280;24244;51.950;5.902;2024-03-08T00:09:59;101829.63;;;6.24;79.88
38466;BME280;24244;51.950;5.902;2024-03-08T00:12:26;101827.00;;;6.24;79.84
38466;BME280;24244;51.950;5.902;2024-03-08T00:14:53;101820.16;;;6.21;79.74
38466;BME280;24244;51.950;5.902;2024-03-08T00:17:21;101829.06;;;6.20;79.82
38466;BME280;24244;51.950;5.902;2024-03-08T00:19:51;101824.72;;;6.19;79.82
38466;BME280;24244;51.950;5.902;2024-03-08T00:22:19;101822.09;;;6.19;79.73
38466;BME280;24244;51.950;5.902;2024-03-08T00:24:47;101822.25;;;6.18;79.66
38466;BME280;24244;51.950;5.902;2024-03-08T00:27:16;101817.78;;;6.18;79.54
38466;BME280;24244;51.950;5.902;2024-03-08T00:29:43;101814.16;;;6.19;79.47
38466;BME280;24244;51.950;5.902;2024-03-08T00:32:09;101814.34;;;6.18;79.49
38466;BME280;24244;51.950;5.902;2024-03-08T00:34:37;101810.97;;;6.16;79.43
38466;BME280;24244;51.950;5.902;2024-03-08T00:37:04;101808.47;;;6.14;79.33
38466;BME280;24244;51.950;5.902;2024-03-08T00:39:31;101805.94;;;6.13;79.32
38466;BME280;24244;51.950;5.902;2024-03-08T00:41:59;101802.63;;;6.11;79.16
38466;BME280;24244;51.950;5.902;2024-03-08T00:44:26;101802.03;;;6.07;79.03
38466;BME280;24244;51.950;5.902;2024-03-08T00:46:53;101796.88;;;6.06;79.19
38466;BME280;24244;51.950;5.902;2024-03-08T00:49:21;101802.16;;;6.06;79.02
38466;BME280;24244;51.950;5.902;2024-03-08T00:51:49;101798.13;;;6.02;79.14
38466;BME280;24244;51.950;5.902;2024-03-08T00:54:16;101797.16;;;6.03;79.13
38466;BME280;24244;51.950;5.902;2024-03-08T00:56:43;101791.88;;;6.03;79.13
38466;BME280;24244;51.950;5.902;2024-03-08T00:59:11;101787.44;;;6.03;79.04
38466;BME280;24244;51.950;5.902;2024-03-08T01:01:40;101775.34;;;6.01;78.81
38466;BME280;24244;51.950;5.902;2024-03-08T01:04:07;101775.47;;;5.99;79.10
38466;BME280;24244;51.950;5.902;2024-03-08T01:06:34;101780.03;;;5.97;78.66
38466;BME280;24244;51.950;5.902;2024-03-08T01:09:01;101770.47;;;5.96;78.83
38466;BME280;24244;51.950;5.902;2024-03-08T01:11:28;101760.03;;;5.95;78.71
38466;BME280;24244;51.950;5.902;2024-03-08T01:13:55;101759.06;;;5.96;78.84
38466;BME280;24244;51.950;5.902;2024-03-08T01:16:23;101758.34;;;5.94;78.74
38466;BME280;24244;51.950;5.902;2024-03-08T01:18:50;101754.03;;;5.93;78.68
38466;BME280;24244;51.950;5.902;2024-03-08T01:21:17;101754.03;;;5.93;78.71
38466;BME280;24244;51.950;5.902;2024-03-08T01:23:44;101757.78;;;5.90;78.45
38466;BME280;24244;51.950;5.902;2024-03-08T01:26:11;101749.28;;;5.86;78.56
38466;BME280;24244;51.950;5.902;2024-03-08T01:28:38;101745.78;;;5.86;78.54
38466;BME280;24244;51.950;5.902;2024-03-08T01:31:04;101740.28;;;5.89;78.46
38466;BME280;24244;51.950;5.902;2024-03-08T01:33:33;101736.66;;;5.90;78.53
38466;BME280;24244;51.950;5.902;2024-03-08T01:36:00;101731.38;;;5.90;78.30
38466;BME280;24244;51.950;5.902;2024-03-08T01:38:27;101732.50;;;5.87;78.25
38466;BME280;24244;51.950;5.902;2024-03-08T01:40:54;101733.56;;;5.85;78.43
38466;BME280;24244;51.950;5.902;2024-03-08T01:43:22;101718.84;;;5.82;78.18
38466;BME280;24244;51.950;5.902;2024-03-08T01:45:49;101724.38;;;5.79;78.03
38466;BME280;24244;51.950;5.902;2024-03-08T01:48:17;101721.88;;;5.78;77.97
38466;BME280;24244;51.950;5.902;2024-03-08T01:50:46;101722.81;;;5.77;77.98
38466;BME280;24244;51.950;5.902;2024-03-08T01:53:13;101722.00;;;5.76;77.93
38466;BME280;24244;51.950;5.902;2024-03-08T01:55:42;101722.00;;;5.76;77.96
38466;BME280;24244;51.950;5.902;2024-03-08T01:58:10;101716.59;;;5.78;77.89
38466;BME280;24244;51.950;5.902;2024-03-08T02:00:39;101714.06;;;5.76;77.60
38466;BME280;24244;51.950;5.902;2024-03-08T02:03:07;101724.06;;;5.73;77.59
38466;BME280;24244;51.950;5.902;2024-03-08T02:05:33;101721.56;;;5.71;77.81
38466;BME280;24244;51.950;5.902;2024-03-08T02:08:02;101712.94;;;5.69;77.58
38466;BME280;24244;51.950;5.902;2024-03-08T02:10:29;101715.56;;;5.69;77.64
38466;BME280;24244;51.950;5.902;2024-03-08T02:12:56;101714.88;;;5.67;77.46
38466;BME280;24244;51.950;5.902;2024-03-08T02:15:23;101705.28;;;5.66;77.35
38466;BME280;24244;51.950;5.902;2024-03-08T02:17:50;101704.59;;;5.64;77.34
38466;BME280;24244;51.950;5.902;2024-03-08T02:20:17;101711.94;;;5.61;77.32
38466;BME280;24244;51.950;5.902;2024-03-08T02:22:48;101698.16;;;5.57;77.29
38466;BME280;24244;51.950;5.902;2024-03-08T02:25:14;101702.88;;;5.54;77.48
38466;BME280;24244;51.950;5.902;2024-03-08T02:27:42;101689.69;;;5.54;77.57
38466;BME280;24244;51.950;5.902;2024-03-08T02:30:10;101690.53;;;5.54;77.48
38466;BME280;24244;51.950;5.902;2024-03-08T02:32:39;101682.63;;;5.54;77.48
38466;BME280;24244;51.950;5.902;2024-03-08T02:35:06;101688.69;;;5.55;77.52
38466;BME280;24244;51.950;5.902;2024-03-08T02:37:33;101677.34;;;5.54;77.26
38466;BME280;24244;51.950;5.902;2024-03-08T02:40:01;101681.91;;;5.52;77.41
38466;BME280;24244;51.950;5.902;2024-03-08T02:42:28;101675.09;;;5.49;77.42
38466;BME280;24244;51.950;5.902;2024-03-08T02:44:55;101680.34;;;5.49;77.13
38466;BME280;24244;51.950;5.902;2024-03-08T02:47:21;101676.75;;;5.50;77.33
38466;BME280;24244;51.950;5.902;2024-03-08T02:49:51;101670.53;;;5.51;77.34
38466;BME280;24244;51.950;5.902;2024-03-08T02:52:18;101667.03;;;5.51;77.16
38466;BME280;24244;51.950;5.902;2024-03-08T02:54:47;101665.66;;;5.47;77.03
38466;BME280;24244;51.950;5.902;2024-03-08T02:57:16;101665.78;;;5.45;77.13
38466;BME280;24244;51.950;5.902;2024-03-08T02:59:42;101667.56;;;5.45;77.24
38466;BME280;24244;51.950;5.902;2024-03-08T03:02:09;101660.63;;;5.44;77.05
38466;BME280;24244;51.950;5.902;2024-03-08T03:04:39;101662.44;;;5.43;77.11
38466;BME280;24244;51.950;5.902;2024-03-08T03:07:06;101658.25;;;5.41;77.08
38466;BME280;24244;51.950;5.902;2024-03-08T03:09:32;101654.75;;;5.40;77.04
38466;BME280;24244;51.950;5.902;2024-03-08T03:11:59;101647.84;;;5.39;76.82
38466;BME280;24244;51.950;5.902;2024-03-08T03:14:27;101645.22;;;5.39;76.65
38466;BME280;24244;51.950;5.902;2024-03-08T03:16:54;101644.63;;;5.36;76.96
38466;BME280;24244;51.950;5.902;2024-03-08T03:19:21;101646.28;;;5.37;77.03
38466;BME280;24244;51.950;5.902;2024-03-08T03:21:48;101643.66;;;5.37;76.73
38466;BME280;24244;51.950;5.902;2024-03-08T03:24:15;101644.63;;;5.36;76.85
38466;BME280;24244;51.950;5.902;2024-03-08T03:26:43;101642.00;;;5.36;76.94
38466;BME280;24244;51.950;5.902;2024-03-08T03:29:10;101638.50;;;5.35;76.80
38466;BME280;24244;51.950;5.902;2024-03-08T03:31:39;101635.75;;;5.37;76.85
38466;BME280;24244;51.950;5.902;2024-03-08T03:34:07;101629.66;;;5.36;76.78
38466;BME280;24244;51.950;5.902;2024-03-08T03:36:35;101632.16;;;5.38;76.72
38466;BME280;24244;51.950;5.902;2024-03-08T03:39:04;101628.81;;;5.36;76.58
38466;BME280;24244;51.950;5.902;2024-03-08T03:41:36;101629.78;;;5.35;76.62
38466;BME280;24244;51.950;5.902;2024-03-08T03:44:04;101634.19;;;5.34;76.71
38466;BME280;24244;51.950;5.902;2024-03-08T03:46:30;101636.16;;;5.32;76.46
38466;BME280;24244;51.950;5.902;2024-03-08T03:49:00;101629.47;;;5.28;76.37
38466;BME280;24244;51.950;5.902;2024-03-08T03:51:27;101632.38;;;5.25;76.58
38466;BME280;24244;51.950;5.902;2024-03-08T03:53:53;101632.50;;;5.24;76.51
38466;BME280;24244;51.950;5.902;2024-03-08T03:56:25;101629.03;;;5.23;76.58
38466;BME280;24244;51.950;5.902;2024-03-08T03:58:51;101620.41;;;5.21;76.48
38466;BME280;24244;51.950;5.902;2024-03-08T04:01:18;101623.03;;;5.21;76.52
38466;BME280;24244;51.950;5.902;2024-03-08T04:03:46;101622.31;;;5.19;76.66
38466;BME280;24244;51.950;5.902;2024-03-08T04:06:14;101616.94;;;5.21;76.52
38466;BME280;24244;51.950;5.902;2024-03-08T04:08:41;101617.88;;;5.20;76.38
38466;BME280;24244;51.950;5.902;2024-03-08T04:11:08;101617.22;;;5.18;76.34
38466;BME280;24244;51.950;5.902;2024-03-08T04:13:37;101617.22;;;5.18;76.30
38466;BME280;24244;51.950;5.902;2024-03-08T04:16:05;101608.47;;;5.17;76.33
38466;BME280;24244;51.950;5.902;2024-03-08T04:18:34;101611.09;;;5.17;76.27
38466;BME280;24244;51.950;5.902;2024-03-08T04:21:04;101615.53;;;5.17;76.23
38466;BME280;24244;51.950;5.902;2024-03-08T04:23:35;101603.31;;;5.16;76.29
38466;BME280;24244;51.950;5.902;2024-03-08T04:26:02;101603.44;;;5.14;76.22
38466;BME280;24244;51.950;5.902;2024-03-08T04:28:30;101608.00;;;5.12;76.20
38466;BME280;24244;51.950;5.902;2024-03-08T04:30:58;101602.03;;;5.10;76.37
38466;BME280;24244;51.950;5.902;2024-03-08T04:33:27;101596.78;;;5.10;76.12
38466;BME280;24244;51.950;5.902;2024-03-08T04:35:54;101599.53;;;5.08;76.18
38466;BME280;24244;51.950;5.902;2024-03-08T04:38:21;101603.13;;;5.07;76.25
38466;BME280;24244;51.950;5.902;2024-03-08T04:40:50;101594.38;;;5.07;76.25
38466;BME280;24244;51.950;5.902;2024-03-08T04:43:17;101593.44;;;5.08;76.09
38466;BME280;24244;51.950;5.902;2024-03-08T04:45:45;101591.03;;;5.05;76.11
38466;BME280;24244;51.950;5.902;2024-03-08T04:48:12;101592.72;;;5.06;76.13
38466;BME280;24244;51.950;5.902;2024-03-08T04:50:39;101589.25;;;5.05;76.07
38466;BME280;24244;51.950;5.902;2024-03-08T04:53:06;101587.44;;;5.06;76.06
38466;BME280;24244;51.950;5.902;2024-03-08T04:55:34;101591.88;;;5.05;76.06
38466;BME280;24244;51.950;5.902;2024-03-08T04:58:03;101585.78;;;5.05;76.02
38466;BME280;24244;51.950;5.902;2024-03-08T05:00:31;101589.25;;;5.05;76.16
38466;BME280;24244;51.950;5.902;2024-03-08T05:02:58;101587.44;;;5.06;75.97
38466;BME280;24244;51.950;5.902;2024-03-08T05:05:25;101580.50;;;5.05;76.06
38466;BME280;24244;51.950;5.902;2024-03-08T05:07:52;101586.88;;;5.02;75.94
38466;BME280;24244;51.950;5.902;2024-03-08T05:10:20;101588.69;;;5.02;75.99
38466;BME280;24244;51.950;5.902;2024-03-08T05:12:46;101578.25;;;5.00;75.94
38466;BME280;24244;51.950;5.902;2024-03-08T05:15:15;101577.44;;;5.00;76.04
38466;BME280;24244;51.950;5.902;2024-03-08T05:17:42;101575.88;;;4.97;75.86
38466;BME280;24244;51.950;5.902;2024-03-08T05:20:09;101575.19;;;4.95;75.93
38466;BME280;24244;51.950;5.902;2024-03-08T05:22:39;101571.84;;;4.93;75.95
38466;BME280;24244;51.950;5.902;2024-03-08T05:25:07;101573.53;;;4.94;76.11
38466;BME280;24244;51.950;5.902;2024-03-08T05:27:34;101571.84;;;4.93;75.86
38466;BME280;24244;51.950;5.902;2024-03-08T05:30:02;101568.38;;;4.93;76.04
38466;BME280;24244;51.950;5.902;2024-03-08T05:32:32;101578.78;;;4.94;76.49
38466;BME280;24244;51.950;5.902;2024-03-08T05:34:59;101569.34;;;4.92;75.96
38466;BME280;24244;51.950;5.902;2024-03-08T05:37:26;101567.41;;;4.94;76.18
38466;BME280;24244;51.950;5.902;2024-03-08T05:39:52;101570.88;;;4.94;75.86
38466;BME280;24244;51.950;5.902;2024-03-08T05:42:20;101564.91;;;4.92;75.94
38466;BME280;24244;51.950;5.902;2024-03-08T05:44:47;101558.78;;;4.92;75.94
38466;BME280;24244;51.950;5.902;2024-03-08T05:47:14;101550.91;;;4.92;75.79
38466;BME280;24244;51.950;5.902;2024-03-08T05:49:44;101555.31;;;4.91;75.94
38466;BME280;24244;51.950;5.902;2024-03-08T05:52:11;101553.94;;;4.87;75.60
38466;BME280;24244;51.950;5.902;2024-03-08T05:54:37;101548.91;;;4.84;75.74
38466;BME280;24244;51.950;5.902;2024-03-08T05:57:04;101549.88;;;4.83;75.92
38466;BME280;24244;51.950;5.902;2024-03-08T05:59:33;101556.81;;;4.84;76.04
38466;BME280;24244;51.950;5.902;2024-03-08T06:02:00;101550.72;;;4.84;76.03
38466;BME280;24244;51.950;5.902;2024-03-08T06:04:26;101547.50;;;4.80;75.97
38466;BME280;24244;51.950;5.902;2024-03-08T06:06:55;101543.19;;;4.79;76.05
38466;BME280;24244;51.950;5.902;2024-03-08T06:09:24;101542.38;;;4.79;76.08
38466;BME280;24244;51.950;5.902;2024-03-08T06:11:52;101547.63;;;4.79;76.28
38466;BME280;24244;51.950;5.902;2024-03-08T06:14:21;101541.53;;;4.78;76.15
38466;BME280;24244;51.950;5.902;2024-03-08T06:16:47;101547.75;;;4.77;76.15
38466;BME280;24244;51.950;5.902;2024-03-08T06:19:17;101543.19;;;4.79;76.24
38466;BME280;24244;51.950;5.902;2024-03-08T06:21:43;101538.78;;;4.80;76.13
38466;BME280;24244;51.950;5.902;2024-03-08T06:24:12;101541.41;;;4.80;76.06
38466;BME280;24244;51.950;5.902;2024-03-08T06:26:39;101534.59;;;4.77;76.14
38466;BME280;24244;51.950;5.902;2024-03-08T06:29:06;101529.47;;;4.76;76.33
38466;BME280;24244;51.950;5.902;2024-03-08T06:31:36;101534.75;;;4.76;76.29
38466;BME280;24244;51.950;5.902;2024-03-08T06:34:06;101534.88;;;4.74;76.20
38466;BME280;24244;51.950;5.902;2024-03-08T06:36:35;101532.34;;;4.72;76.33
38466;BME280;24244;51.950;5.902;2024-03-08T06:39:04;101527.81;;;4.75;76.37
38466;BME280;24244;51.950;5.902;2024-03-08T06:41:37;101525.16;;;4.75;76.42
38466;BME280;24244;51.950;5.902;2024-03-08T06:44:05;101524.56;;;4.71;76.25
38466;BME280;24244;51.950;5.902;2024-03-08T06:46:31;101523.06;;;4.68;76.58
38466;BME280;24244;51.950;5.902;2024-03-08T06:48:58;101525.09;;;4.65;76.51
38466;BME280;24244;51.950;5.902;2024-03-08T06:51:25;101530.59;;;4.62;76.37
38466;BME280;24244;51.950;5.902;2024-03-08T06:53:52;101519.41;;;4.60;76.60
38466;BME280;24244;51.950;5.902;2024-03-08T06:56:19;101524.53;;;4.61;76.51
38466;BME280;24244;51.950;5.902;2024-03-08T06:58:47;101529.66;;;4.63;76.49
38466;BME280;24244;51.950;5.902;2024-03-08T07:01:15;101529.66;;;4.63;76.52
38466;BME280;24244;51.950;5.902;2024-03-08T07:03:41;101533.84;;;4.65;76.81
38466;BME280;24244;51.950;5.902;2024-03-08T07:06:11;101528.69;;;4.64;76.54
38466;BME280;24244;51.950;5.902;2024-03-08T07:08:38;101529.66;;;4.63;76.65
38466;BME280;24244;51.950;5.902;2024-03-08T07:11:06;101527.16;;;4.61;76.50
38466;BME280;24244;51.950;5.902;2024-03-08T07:13:33;101517.31;;;4.63;76.71
38466;BME280;24244;51.950;5.902;2024-03-08T07:16:01;101523.44;;;4.64;76.43
38466;BME280;24244;51.950;5.902;2024-03-08T07:18:28;101524.25;;;4.64;76.67
38466;BME280;24244;51.950;5.902;2024-03-08T07:20:57;101519.59;;;4.68;76.63
38466;BME280;24244;51.950;5.902;2024-03-08T07:23:24;101514.16;;;4.69;76.65
38466;BME280;24244;51.950;5.902;2024-03-08T07:26:10;101523.19;;;4.67;76.37
38466;BME280;24244;51.950;5.902;2024-03-08T07:28:36;101512.78;;;4.65;76.50
38466;BME280;24244;51.950;5.902;2024-03-08T07:31:05;101514.56;;;4.65;76.52
38466;BME280;24244;51.950;5.902;2024-03-08T07:33:39;101512.91;;;4.64;76.63
38466;BME280;24244;51.950;5.902;2024-03-08T07:36:07;101504.88;;;4.65;76.58
38466;BME280;24244;51.950;5.902;2024-03-08T07:38:34;101513.47;;;4.67;76.87
38466;BME280;24244;51.950;5.902;2024-03-08T07:41:00;101506.25;;;4.69;76.81
38466;BME280;24244;51.950;5.902;2024-03-08T07:43:30;101503.25;;;4.74;76.82
38466;BME280;24244;51.950;5.902;2024-03-08T07:45:57;101499.41;;;4.78;76.61
38466;BME280;24244;51.950;5.902;2024-03-08T07:48:27;101496.63;;;4.80;76.49
38466;BME280;24244;51.950;5.902;2024-03-08T07:50:54;101499.16;;;4.81;76.64
38466;BME280;24244;51.950;5.902;2024-03-08T07:53:22;101491.13;;;4.83;76.61
38466;BME280;24244;51.950;5.902;2024-03-08T07:55:51;101488.22;;;4.86;76.83
38466;BME280;24244;51.950;5.902;2024-03-08T07:58:18;101485.44;;;4.87;76.79
38466;BME280;24244;51.950;5.902;2024-03-08T08:00:45;101486.16;;;4.89;76.63
38466;BME280;24244;51.950;5.902;2024-03-08T08:03:12;101481.00;;;4.88;76.65
38466;BME280;24244;51.950;5.902;2024-03-08T08:05:41;101484.47;;;4.88;76.79
38466;BME280;24244;51.950;5.902;2024-03-08T08:08:08;101477.25;;;4.90;76.72
38466;BME280;24244;51.950;5.902;2024-03-08T08:10:37;101478.94;;;4.91;76.49
38466;BME280;24244;51.950;5.902;2024-03-08T08:13:04;101473.00;;;4.89;76.78
38466;BME280;24244;51.950;5.902;2024-03-08T08:15:31;101471.03;;;4.91;76.59
38466;BME280;24244;51.950;5.902;2024-03-08T08:18:01;101468.97;;;4.95;76.98
38466;BME280;24244;51.950;5.902;2024-03-08T08:20:29;101466.78;;;5.00;76.76
38466;BME280;24244;51.950;5.902;2024-03-08T08:22:57;101463.88;;;5.03;76.91
38466;BME280;24244;51.950;5.902;2024-03-08T08:25:25;101454.88;;;5.05;76.82
38466;BME280;24244;51.950;5.902;2024-03-08T08:27:52;101453.78;;;5.08;76.86
38466;BME280;24244;51.950;5.902;2024-03-08T08:30:20;101449.91;;;5.12;76.85
38466;BME280;24244;51.950;5.902;2024-03-08T08:32:48;101445.63;;;5.11;76.95
38466;BME280;24244;51.950;5.902;2024-03-08T08:35:16;101445.47;;;5.12;77.08
38466;BME280;24244;51.950;5.902;2024-03-08T08:37:44;101432.28;;;5.12;77.13
38466;BME280;24244;51.950;5.902;2024-03-08T08:40:13;101434.91;;;5.12;77.07
38466;BME280;24244;51.950;5.902;2024-03-08T08:42:44;101434.53;;;5.17;77.24
38466;BME280;24244;51.950;5.902;2024-03-08T08:45:15;101430.53;;;5.23;77.14
38466;BME280;24244;51.950;5.902;2024-03-08T08:47:48;101424.00;;;5.27;77.25
38466;BME280;24244;51.950;5.902;2024-03-08T08:50:16;101422.91;;;5.29;77.38
38466;BME280;24244;51.950;5.902;2024-03-08T08:52:49;101420.69;;;5.34;77.36
38466;BME280;24244;51.950;5.902;2024-03-08T08:55:18;101413.34;;;5.38;77.33
38466;BME280;24244;51.950;5.902;2024-03-08T08:57:48;101424.31;;;5.43;77.39
38466;BME280;24244;51.950;5.902;2024-03-08T09:00:16;101411.00;;;5.44;77.57
38466;BME280;24244;51.950;5.902;2024-03-08T09:02:43;101417.66;;;5.48;77.57
38466;BME280;24244;51.950;5.902;2024-03-08T09:05:10;101407.56;;;5.54;77.54
38466;BME280;24244;51.950;5.902;2024-03-08T09:07:38;101406.28;;;5.58;77.43
38466;BME280;24244;51.950;5.902;2024-03-08T09:10:06;101393.38;;;5.64;77.56
38466;BME280;24244;51.950;5.902;2024-03-08T09:12:40;101393.13;;;5.67;77.46
38466;BME280;24244;51.950;5.902;2024-03-08T09:15:07;101398.09;;;5.70;77.60
38466;BME280;24244;51.950;5.902;2024-03-08T09:17:38;101388.94;;;5.74;77.57
38466;BME280;24244;51.950;5.902;2024-03-08T09:20:10;101382.53;;;5.77;77.45
38466;BME280;24244;51.950;5.902;2024-03-08T09:22:43;101375.19;;;5.80;77.58
38466;BME280;24244;51.950;5.902;2024-03-08T09:25:10;101382.69;;;5.85;77.63
38466;BME280;24244;51.950;5.902;2024-03-08T09:27:37;101378.69;;;5.90;77.68
38466;BME280;24244;51.950;5.902;2024-03-08T09:30:08;101378.28;;;5.95;77.64
38466;BME280;24244;51.950;5.902;2024-03-08T09:32:35;101364.94;;;5.97;77.60
38466;BME280;24244;51.950;5.902;2024-03-08T09:35:04;101362.56;;;6.03;77.67
38466;BME280;24244;51.950;5.902;2024-03-08T09:37:33;101357.81;;;6.07;77.69
38466;BME280;24244;51.950;5.902;2024-03-08T09:40:00;101359.22;;;6.11;77.67
38466;BME280;24244;51.950;5.902;2024-03-08T09:42:31;101350.88;;;6.15;77.62
38466;BME280;24244;51.950;5.902;2024-03-08T09:44:58;101347.78;;;6.20;77.72
38466;BME280;24244;51.950;5.902;2024-03-08T09:47:28;101349.84;;;6.26;77.80
38466;BME280;24244;51.950;5.902;2024-03-08T09:50:00;101336.09;;;6.32;77.72
38466;BME280;24244;51.950;5.902;2024-03-08T09:52:29;101345.50;;;6.35;77.79
38466;BME280;24244;51.950;5.902;2024-03-08T09:54:57;101340.50;;;6.41;77.70
38466;BME280;24244;51.950;5.902;2024-03-08T09:57:25;101333.78;;;6.47;77.96
38466;BME280;24244;51.950;5.902;2024-03-08T09:59:52;101316.69;;;6.51;77.88
38466;BME280;24244;51.950;5.902;2024-03-08T10:02:19;101319.72;;;6.56;77.77
38466;BME280;24244;51.950;5.902;2024-03-08T10:04:51;101315.97;;;6.58;78.01
38466;BME280;24244;51.950;5.902;2024-03-08T10:07:20;101314.00;;;6.60;77.74
38466;BME280;24244;51.950;5.902;2024-03-08T10:09:47;101314.53;;;6.64;77.79
38466;BME280;24244;51.950;5.902;2024-03-08T10:12:17;101315.88;;;6.68;77.74
38466;BME280;24244;51.950;5.902;2024-03-08T10:14:44;101307.69;;;6.71;77.77
38466;BME280;24244;51.950;5.902;2024-03-08T10:17:11;101308.38;;;6.73;77.58
38466;BME280;24244;51.950;5.902;2024-03-08T10:19:37;101305.41;;;6.76;77.46
38466;BME280;24244;51.950;5.902;2024-03-08T10:22:07;101294.44;;;6.81;77.46
38466;BME280;24244;51.950;5.902;2024-03-08T10:24:40;101288.00;;;6.83;77.36
38466;BME280;24244;51.950;5.902;2024-03-08T10:27:07;101283.41;;;6.85;76.99
38466;BME280;24244;51.950;5.902;2024-03-08T10:29:34;101274.03;;;6.91;76.67
38466;BME280;24244;51.950;5.902;2024-03-08T10:32:02;101281.69;;;6.94;76.86
38466;BME280;24244;51.950;5.902;2024-03-08T10:34:29;101283.88;;;6.98;77.02
38466;BME280;24244;51.950;5.902;2024-03-08T10:37:01;101270.38;;;7.01;77.13
38466;BME280;24244;51.950;5.902;2024-03-08T10:39:34;101268.91;;;7.07;77.02
38466;BME280;24244;51.950;5.902;2024-03-08T10:42:03;101258.06;;;7.10;77.15
38466;BME280;24244;51.950;5.902;2024-03-08T10:44:43;101254.13;;;7.14;77.03
38466;BME280;24244;51.950;5.902;2024-03-08T10:47:18;101245.72;;;7.19;76.83
38466;BME280;24244;51.950;5.902;2024-03-08T10:49:59;101244.59;;;7.21;76.80
38466;BME280;24244;51.950;5.902;2024-03-08T10:52:31;101239.66;;;7.26;77.06
38466;BME280;24244;51.950;5.902;2024-03-08T10:55:01;101228.66;;;7.31;76.84
38466;BME280;24244;51.950;5.902;2024-03-08T10:57:28;101227.50;;;7.33;76.84
38466;BME280;24244;51.950;5.902;2024-03-08T10:59:56;101218.28;;;7.37;76.89
38466;BME280;24244;51.950;5.902;2024-03-08T11:02:25;101219.63;;;7.41;76.81
38466;BME280;24244;51.950;5.902;2024-03-08T11:04:54;101217.34;;;7.46;76.66
38466;BME280;24244;51.950;5.902;2024-03-08T11:07:24;101203.69;;;7.51;76.61
38466;BME280;24244;51.950;5.902;2024-03-08T11:09:55;101194.28;;;7.57;76.19
38466;BME280;24244;51.950;5.902;2024-03-08T11:12:25;101187.69;;;7.61;76.28
38466;BME280;24244;51.950;5.902;2024-03-08T11:14:58;101195.16;;;7.65;76.04
38466;BME280;24244;51.950;5.902;2024-03-08T11:17:39;101187.88;;;7.67;76.10
38466;BME280;24244;51.950;5.902;2024-03-08T11:20:09;101180.47;;;7.71;75.90
38466;BME280;24244;51.950;5.902;2024-03-08T11:22:43;101175.69;;;7.74;75.82
38466;BME280;24244;51.950;5.902;2024-03-08T11:25:32;101169.25;;;7.77;76.16
38466;BME280;24244;51.950;5.902;2024-03-08T11:28:13;101165.31;;;7.81;75.96
38466;BME280;24244;51.950;5.902;2024-03-08T11:30:44;101159.53;;;7.85;76.10
38466;BME280;24244;51.950;5.902;2024-03-08T11:33:14;101162.53;;;7.91;75.83
38466;BME280;24244;51.950;5.902;2024-03-08T11:35:42;101158.41;;;7.96;75.82
38466;BME280;24244;51.950;5.902;2024-03-08T11:38:09;101156.44;;;7.98;75.57
38466;BME280;24244;51.950;5.902;2024-03-08T11:40:36;101143.72;;;8.02;75.45
38466;BME280;24244;51.950;5.902;2024-03-08T11:43:03;101129.31;;;8.04;75.40
38466;BME280;24244;51.950;5.902;2024-03-08T11:45:35;101134.16;;;8.09;74.75
38466;BME280;24244;51.950;5.902;2024-03-08T11:48:07;101132.84;;;8.13;74.63
38466;BME280;24244;51.950;5.902;2024-03-08T11:50:35;101132.19;;;8.19;74.55
38466;BME280;24244;51.950;5.902;2024-03-08T11:53:03;101136.34;;;8.21;74.65
38466;BME280;24244;51.950;5.902;2024-03-08T11:55:31;101128.06;;;8.24;74.44
38466;BME280;24244;51.950;5.902;2024-03-08T11:58:02;101122.44;;;8.27;74.16
38466;BME280;24244;51.950;5.902;2024-03-08T12:00:29;101121.16;;;8.32;73.53
38466;BME280;24244;51.950;5.902;2024-03-08T12:03:04;101119.19;;;8.34;73.67
38466;BME280;24244;51.950;5.902;2024-03-08T12:05:31;101119.84;;;8.36;73.67
38466;BME280;24244;51.950;5.902;2024-03-08T12:08:00;101117.06;;;8.37;73.79
38466;BME280;24244;51.950;5.902;2024-03-08T12:10:28;101104.44;;;8.39;73.79
38466;BME280;24244;51.950;5.902;2024-03-08T12:12:56;101110.41;;;8.41;73.89
38466;BME280;24244;51.950;5.902;2024-03-08T12:15:26;101103.00;;;8.45;73.66
38466;BME280;24244;51.950;5.902;2024-03-08T12:17:55;101095.38;;;8.50;73.57
38466;BME280;24244;51.950;5.902;2024-03-08T12:20:25;101102.97;;;8.53;73.81
38466;BME280;24244;51.950;5.902;2024-03-08T12:22:53;101084.28;;;8.54;73.29
38466;BME280;24244;51.950;5.902;2024-03-08T12:25:20;101091.56;;;8.60;73.45
38466;BME280;24244;51.950;5.902;2024-03-08T12:27:48;101081.47;;;8.64;73.41
38466;BME280;24244;51.950;5.902;2024-03-08T12:30:19;101081.78;;;8.69;73.34
38466;BME280;24244;51.950;5.902;2024-03-08T12:32:50;101075.19;;;8.73;73.09
38466;BME280;24244;51.950;5.902;2024-03-08T12:35:19;101067.03;;;8.75;73.09
38466;BME280;24244;51.950;5.902;2024-03-08T12:37:51;101070.34;;;8.77;72.82
38466;BME280;24244;51.950;5.902;2024-03-08T12:40:25;101056.94;;;8.78;72.42
38466;BME280;24244;51.950;5.902;2024-03-08T12:42:53;101064.72;;;8.80;72.38
38466;BME280;24244;51.950;5.902;2024-03-08T12:45:21;101057.25;;;8.83;72.39
38466;BME280;24244;51.950;5.902;2024-03-08T12:47:50;101054.28;;;8.86;72.10
38466;BME280;24244;51.950;5.902;2024-03-08T12:50:17;101039.22;;;8.87;72.26
38466;BME280;24244;51.950;5.902;2024-03-08T12:52:44;101037.19;;;8.89;71.59
38466;BME280;24244;51.950;5.902;2024-03-08T12:55:13;101031.75;;;8.90;71.71
38466;BME280;24244;51.950;5.902;2024-03-08T12:57:40;101038.53;;;8.93;71.62
38466;BME280;24244;51.950;5.902;2024-03-08T13:00:08;101036.72;;;8.93;71.57
38466;BME280;24244;51.950;5.902;2024-03-08T13:02:39;101028.75;;;8.93;71.60
38466;BME280;24244;51.950;5.902;2024-03-08T13:05:07;101028.75;;;8.93;71.61